createdAt,value
2018-12-10T00:01:27.286Z,69.67
2018-12-10T00:05:34.310Z,69.42
2018-12-10T00:09:38.345Z,69.29
2018-12-10T00:13:42.348Z,68.76
2018-12-10T00:17:46.449Z,68.97
2018-12-10T00:21:50.492Z,68.75
2018-12-10T00:25:54.494Z,69.16
2018-12-10T00:29:58.516Z,68.35
2018-12-10T00:34:02.522Z,68.83
2018-12-10T00:38:06.624Z,68.12
2018-12-10T00:42:10.583Z,67.39
2018-12-10T00:46:14.627Z,67.76
2018-12-10T00:50:19.461Z,67.90
2018-12-10T00:54:23.443Z,68.67
2018-12-10T00:58:27.394Z,67.94
2018-12-10T01:02:31.366Z,68.01
2018-12-10T01:06:35.346Z,68.54
2018-12-10T01:10:39.295Z,69.68
2018-12-10T01:14:43.265Z,69.24
2018-12-10T01:18:47.316Z,69.53
2018-12-10T01:22:52.286Z,69.15
2018-12-10T01:26:56.323Z,68.66
2018-12-10T01:31:00.412Z,68.85
2018-12-10T01:35:04.640Z,69.43
2018-12-10T01:39:08.701Z,69.42
2018-12-10T01:43:12.663Z,69.36
2018-12-10T01:47:16.741Z,69.66
2018-12-10T01:51:20.718Z,69.88
2018-12-10T01:55:24.724Z,69.57
2018-12-10T01:59:28.643Z,69.93
2018-12-10T02:03:32.713Z,69.78
2018-12-10T02:07:36.714Z,70.00
2018-12-10T02:11:40.715Z,70.21
2018-12-10T02:15:44.879Z,70.06
2018-12-10T02:19:48.864Z,69.50
2018-12-10T02:23:52.920Z,69.77
2018-12-10T02:27:56.916Z,69.15
2018-12-10T02:32:00.919Z,69.06
2018-12-10T02:36:05.065Z,69.22
2018-12-10T02:40:09.117Z,68.53
2018-12-10T02:44:13.208Z,69.25
2018-12-10T02:48:17.451Z,69.49
2018-12-10T02:52:21.466Z,69.66
2018-12-10T02:56:25.454Z,69.38
2018-12-10T03:00:29.543Z,69.11
2018-12-10T03:04:33.535Z,68.51
2018-12-10T03:08:37.471Z,68.62
2018-12-10T03:12:41.461Z,68.07
2018-12-10T03:16:45.626Z,68.64
2018-12-10T03:20:49.648Z,69.34
2018-12-10T03:24:53.713Z,68.75
2018-12-10T03:28:57.746Z,67.81
2018-12-10T03:33:01.824Z,67.91
2018-12-10T03:37:05.902Z,67.11
2018-12-10T03:41:09.931Z,66.86
2018-12-10T03:45:14.049Z,67.09
2018-12-10T03:49:18.108Z,67.18
2018-12-10T03:53:22.099Z,67.29
2018-12-10T03:57:26.144Z,67.59
2018-12-10T04:01:30.139Z,67.56
2018-12-10T04:05:34.139Z,67.31
2018-12-10T04:09:38.104Z,67.48
2018-12-10T04:13:42.081Z,68.04
2018-12-10T04:17:46.188Z,67.80
2018-12-10T04:21:50.239Z,68.13
2018-12-10T04:25:54.260Z,68.24
2018-12-10T04:29:58.294Z,68.71
2018-12-10T04:34:02.310Z,69.19
2018-12-10T04:38:06.384Z,68.99
2018-12-10T04:42:10.352Z,69.12
2018-12-10T04:46:14.367Z,69.10
2018-12-10T04:50:18.451Z,69.04
2018-12-10T04:54:22.435Z,69.52
2018-12-10T04:58:26.479Z,69.45
2018-12-10T05:02:30.475Z,69.82
2018-12-10T05:07:37.176Z,69.47
2018-12-10T05:11:41.255Z,69.40
2018-12-10T05:15:45.243Z,69.65
2018-12-10T05:19:49.274Z,69.83
2018-12-10T05:24:55.722Z,69.31
2018-12-10T05:29:00.867Z,69.25
2018-12-10T05:33:04.910Z,69.72
2018-12-10T05:37:08.889Z,69.56
2018-12-10T05:41:12.919Z,69.37
2018-12-10T05:53:54.607Z,69.33
2018-12-10T05:57:58.655Z,69.72
2018-12-10T06:02:02.969Z,69.31
2018-12-10T06:06:06.980Z,69.73
2018-12-10T06:10:11.064Z,69.72
2018-12-10T06:14:15.117Z,69.77
2018-12-10T06:18:19.199Z,69.76
2018-12-10T06:22:23.176Z,69.38
2018-12-10T06:26:27.218Z,69.36
2018-12-10T06:30:31.295Z,69.90
2018-12-10T06:34:35.346Z,69.51
2018-12-10T06:38:39.307Z,69.49
2018-12-10T06:42:43.461Z,69.62
2018-12-10T06:46:47.539Z,69.73
2018-12-10T06:50:51.504Z,69.69
2018-12-10T06:54:55.493Z,69.52
2018-12-10T06:58:59.476Z,69.96
2018-12-10T07:03:06.967Z,69.74
2018-12-10T07:07:11.002Z,70.21
2018-12-10T07:11:15.057Z,69.97
2018-12-10T07:15:18.996Z,69.68
2018-12-10T07:19:22.931Z,69.41
2018-12-10T07:23:27.148Z,69.75
2018-12-10T07:27:31.112Z,69.29
2018-12-10T07:31:35.158Z,69.07
2018-12-10T07:35:39.259Z,68.64
2018-12-10T07:39:43.278Z,69.52
2018-12-10T07:43:47.347Z,68.94
2018-12-10T07:47:51.381Z,69.43
2018-12-10T07:51:55.339Z,69.15
2018-12-10T07:55:59.368Z,68.91
2018-12-10T08:00:03.675Z,69.12
2018-12-10T08:04:07.734Z,68.80
2018-12-10T08:08:11.774Z,68.76
2018-12-10T08:12:15.792Z,69.02
2018-12-10T08:16:19.746Z,68.70
2018-12-10T08:20:23.922Z,68.13
2018-12-10T08:24:27.995Z,68.19
2018-12-10T08:28:31.947Z,68.56
2018-12-10T08:32:36.079Z,68.63
2018-12-10T08:36:40.065Z,68.83
2018-12-10T08:40:44.123Z,69.17
2018-12-10T08:44:48.191Z,68.85
2018-12-10T08:48:52.150Z,68.83
2018-12-10T08:52:56.203Z,68.96
2018-12-10T08:57:01.294Z,69.10
2018-12-10T09:01:05.570Z,69.16
2018-12-10T09:05:09.976Z,68.94
2018-12-10T09:09:14.131Z,68.96
2018-12-10T09:13:18.204Z,68.50
2018-12-10T09:17:22.205Z,68.91
2018-12-10T09:21:26.208Z,68.22
2018-12-10T09:25:30.230Z,68.12
2018-12-10T09:29:34.368Z,67.17
2018-12-10T09:33:38.438Z,67.37
2018-12-10T09:37:42.461Z,66.90
2018-12-10T09:41:46.700Z,67.46
2018-12-10T09:45:50.806Z,66.40
2018-12-10T09:49:54.938Z,66.29
2018-12-10T09:53:59.036Z,66.02
2018-12-10T09:58:02.996Z,65.63
2018-12-10T10:02:12.316Z,65.67
2018-12-10T10:06:13.630Z,66.51
2018-12-10T10:10:17.666Z,67.48
2018-12-10T10:14:21.758Z,68.86
2018-12-10T10:18:25.863Z,69.83
2018-12-10T10:22:29.925Z,70.28
2018-12-10T10:26:33.991Z,71.54
2018-12-10T10:30:43.798Z,71.25
2018-12-10T10:34:44.477Z,69.78
2018-12-10T10:38:49.266Z,69.98
2018-12-10T10:42:53.303Z,69.94
2018-12-10T10:46:57.319Z,69.66
2018-12-10T10:51:01.364Z,69.82
2018-12-10T10:55:05.615Z,70.67
2018-12-10T10:59:09.691Z,70.91
2018-12-10T11:03:19.038Z,71.19
2018-12-10T11:07:23.086Z,71.06
2018-12-10T11:11:27.223Z,71.27
2018-12-10T11:15:31.219Z,70.36
2018-12-10T11:19:35.276Z,70.24
2018-12-10T11:23:39.379Z,69.65
2018-12-10T11:27:43.412Z,70.49
2018-12-10T11:31:48.536Z,70.05
2018-12-10T11:35:52.754Z,70.53
2018-12-10T11:39:56.827Z,69.65
2018-12-10T11:44:00.783Z,71.06
2018-12-10T11:48:04.943Z,70.73
2018-12-10T11:52:09.042Z,70.90
2018-12-10T11:56:13.300Z,70.73
2018-12-10T12:00:18.499Z,70.74
2018-12-10T12:04:22.554Z,70.46
2018-12-10T12:08:28.885Z,70.14
2018-12-10T12:12:32.928Z,70.99
2018-12-10T12:16:37.001Z,71.08
2018-12-10T12:20:41.034Z,70.76
2018-12-10T12:24:45.029Z,71.43
2018-12-10T12:28:49.991Z,71.67
2018-12-10T12:32:54.024Z,71.60
2018-12-10T12:38:01.695Z,71.18
2018-12-10T12:42:05.894Z,70.72
2018-12-10T12:46:09.910Z,70.96
2018-12-10T12:50:13.990Z,71.36
2018-12-10T12:54:18.933Z,70.73
2018-12-10T12:58:22.955Z,70.97
2018-12-10T13:02:27.127Z,70.41
2018-12-10T13:06:31.392Z,71.03
2018-12-10T13:10:35.419Z,69.77
2018-12-10T13:14:39.541Z,69.70
2018-12-10T13:18:46.523Z,69.09
2018-12-10T13:27:45.419Z,69.17
2018-12-10T13:31:50.667Z,69.16
2018-12-10T13:35:54.644Z,69.55
2018-12-10T13:40:00.070Z,69.47
2018-12-10T13:44:04.260Z,69.94
2018-12-10T13:48:08.415Z,69.52
2018-12-10T13:52:12.610Z,70.35
2018-12-10T13:56:16.633Z,70.78
2018-12-10T14:00:20.683Z,69.68
2018-12-10T14:04:34.580Z,70.49
2018-12-10T14:08:38.718Z,70.13
2018-12-10T14:12:42.739Z,70.22
2018-12-10T14:16:46.809Z,69.97
2018-12-10T14:20:50.854Z,69.87
2018-12-10T14:24:54.904Z,70.42
2018-12-10T14:28:59.011Z,69.94
2018-12-10T14:33:04.411Z,70.21
2018-12-10T14:37:23.680Z,70.19
2018-12-10T14:41:53.074Z,70.66
2018-12-10T14:46:20.584Z,71.33
2018-12-10T14:50:42.614Z,71.40
2018-12-10T14:55:13.295Z,71.07
2018-12-10T14:59:28.701Z,70.53
2018-12-10T15:05:00.791Z,70.54
2018-12-10T15:09:07.815Z,70.75
2018-12-10T15:13:11.882Z,70.41
2018-12-10T15:17:15.867Z,70.80
2018-12-10T15:21:19.911Z,70.52
2018-12-10T15:25:24.112Z,69.74
2018-12-10T15:29:28.200Z,69.50
2018-12-10T15:33:32.195Z,69.09
2018-12-10T15:37:36.282Z,70.10
2018-12-10T15:41:40.276Z,69.97
2018-12-10T15:45:46.292Z,70.32
2018-12-10T15:49:50.442Z,70.58
2018-12-10T15:53:54.428Z,71.45
2018-12-10T15:57:58.504Z,71.02
2018-12-10T16:02:02.588Z,71.45
2018-12-10T16:06:06.620Z,71.69
2018-12-10T16:10:10.640Z,71.45
2018-12-10T16:14:14.753Z,70.83
2018-12-10T16:18:18.948Z,71.48
2018-12-10T16:22:22.995Z,71.28
2018-12-10T16:26:27.199Z,71.50
2018-12-10T16:30:31.715Z,71.28
2018-12-10T16:34:37.007Z,71.20
2018-12-10T16:38:41.430Z,71.24
2018-12-10T16:42:45.441Z,70.86
2018-12-10T16:46:49.873Z,71.09
2018-12-10T16:50:53.969Z,70.85
2018-12-10T16:54:58.125Z,70.53
2018-12-10T16:59:02.182Z,70.90
2018-12-10T17:03:06.184Z,70.58
2018-12-10T17:07:10.226Z,71.23
2018-12-10T17:11:14.276Z,71.38
2018-12-10T17:15:18.420Z,71.40
2018-12-10T17:19:22.687Z,71.74
2018-12-10T17:23:26.728Z,71.18
2018-12-10T17:27:30.730Z,71.67
2018-12-10T17:31:34.800Z,72.15
2018-12-10T17:35:38.827Z,72.08
2018-12-10T17:39:42.882Z,72.08
2018-12-10T17:48:21.492Z,71.95
2018-12-10T17:52:25.491Z,71.82
2018-12-10T17:56:35.475Z,71.74
2018-12-10T18:00:39.743Z,71.91
2018-12-10T18:04:44.904Z,72.04
2018-12-10T18:08:49.167Z,72.05
2018-12-10T18:12:53.215Z,72.17
2018-12-10T18:17:15.635Z,71.78
2018-12-10T18:21:19.674Z,71.74
2018-12-10T18:25:23.882Z,71.80
2018-12-10T18:29:27.986Z,71.30
2018-12-10T18:33:50.107Z,71.21
2018-12-10T18:37:54.076Z,71.15
2018-12-10T18:42:00.132Z,71.51
2018-12-10T18:46:08.011Z,71.51
2018-12-10T18:50:12.851Z,71.47
2018-12-10T18:54:16.827Z,71.45
2018-12-10T18:58:20.889Z,71.34
2018-12-10T19:02:24.895Z,71.43
2018-12-10T19:11:11.326Z,72.59
2018-12-10T19:15:19.061Z,72.42
2018-12-10T19:19:23.122Z,72.40
2018-12-10T19:23:27.227Z,71.95
2018-12-10T19:27:31.322Z,71.43
2018-12-10T19:31:35.350Z,71.90
2018-12-10T19:35:53.023Z,72.09
2018-12-10T19:39:57.075Z,72.08
2018-12-10T19:44:01.207Z,72.25
2018-12-10T19:48:06.150Z,72.62
2018-12-10T19:52:10.174Z,72.35
2018-12-10T19:56:14.223Z,72.56
2018-12-10T20:06:59.525Z,72.53
2018-12-10T20:11:03.941Z,72.39
2018-12-10T20:15:09.271Z,72.21
2018-12-10T20:19:17.193Z,72.22
2018-12-10T20:23:21.126Z,71.41
2018-12-10T20:27:26.261Z,71.04
2018-12-10T20:31:30.279Z,70.95
2018-12-10T20:35:37.356Z,70.77
2018-12-10T20:39:41.531Z,70.78
2018-12-10T20:43:46.404Z,70.44
2018-12-10T20:47:50.491Z,70.31
2018-12-10T21:06:58.235Z,70.44
2018-12-10T21:19:48.027Z,70.59
2018-12-10T21:23:52.078Z,71.17
2018-12-10T21:27:56.147Z,70.71
2018-12-10T21:32:05.768Z,70.57
2018-12-10T21:36:10.290Z,70.21
2018-12-10T21:40:14.535Z,69.91
2018-12-10T21:44:18.707Z,69.97
2018-12-10T21:48:24.101Z,69.97
2018-12-10T21:52:28.179Z,69.55
2018-12-10T21:56:32.384Z,70.02
2018-12-10T22:00:37.290Z,69.43
2018-12-10T22:04:41.569Z,69.47
2018-12-10T22:08:45.629Z,69.71
2018-12-10T22:12:49.779Z,70.41
2018-12-10T22:16:55.268Z,70.11
2018-12-10T22:20:59.346Z,70.14
2018-12-10T22:25:03.640Z,70.48
2018-12-10T22:29:07.936Z,70.52
2018-12-10T22:33:12.165Z,70.33
2018-12-10T22:37:16.330Z,70.04
2018-12-10T22:41:22.555Z,70.00
2018-12-10T22:45:26.771Z,69.97
2018-12-10T22:49:31.018Z,69.75
2018-12-10T22:53:35.376Z,69.60
2018-12-10T22:57:40.080Z,69.51
2018-12-10T23:01:44.404Z,70.50
2018-12-10T23:05:48.798Z,70.24
2018-12-10T23:09:52.995Z,69.73
2018-12-10T23:13:56.951Z,69.88
2018-12-10T23:18:01.000Z,69.86
2018-12-10T23:22:05.170Z,70.35
2018-12-10T23:26:09.177Z,70.17
2018-12-10T23:30:13.278Z,70.34
2018-12-10T23:34:17.340Z,70.25
2018-12-10T23:38:21.818Z,70.12
2018-12-10T23:42:25.886Z,70.29
2018-12-10T23:46:30.084Z,70.84
